Home   Weather   Germany   Falkensee   Past weeks
Flag for Germany

Past Weather in Falkensee, Brandenburg, Germany — Yesterday and Last 2 Weeks

Currently: 70 °F. Scattered clouds. (Weather station: Berlin-Schoenefeld, Germany). See more current weather

Past Weather in Falkensee — Graph

°F

Falkensee Temperature Yesterday

Maximum temperature yesterday: 82 °F (at 4:20 pm)
Minimum temperature yesterday: 63 °F (at 11:20 pm)
Average temperature yesterday: 71 °F

High & Low Weather Summary for the Past Weeks

 TemperatureHumidityPressure
High90 °F (Jul 6, 3:50 pm)100% (Jul 2, 11:20 pm)30.09 "Hg (Jul 2, 11:20 pm)
Low50 °F (Jul 5, 3:50 am)29% (Jul 15, 3:50 pm)29.53 "Hg (Jul 6, 4:20 pm)
Average67 °F69%29.88 "Hg
* Reported Jul 2 10:20 am — Jul 17 10:50 am, Falkensee. Weather by CustomWeather, © 2024

Note: Actual official high and low records may vary slightly from our data, if they occured in-between our weather recording intervals... More about our weather records

Falkensee Weather History for the Previous 24 Hours

Scroll right to see more
 ConditionsComfort  
Time TempWeatherWind HumidityBarometerVisibility
10:50 am
Wed, Jul 17
72 °FScattered clouds.14 mph61%30.07 "HgN/A
10:20 am70 °FScattered clouds.14 mph64%30.07 "HgN/A
9:50 am70 °FSunny.12 mph69%30.07 "Hg10 mi
9:20 am68 °FSunny.13 mph69%30.04 "Hg10 mi
8:50 am64 °FSunny.12 mph78%30.04 "Hg10 mi
8:20 am64 °FSunny.12 mph78%30.04 "Hg10 mi
7:50 am63 °FSunny.9 mph83%30.04 "Hg10 mi
7:20 am63 °FSunny.12 mph77%30.04 "Hg10 mi
6:50 am63 °FSunny.13 mph77%30.04 "Hg10 mi
6:20 am61 °FSunny.9 mph83%30.01 "Hg10 mi
5:50 am59 °FSunny.9 mph82%30.01 "Hg10 mi
5:20 am59 °FPassing clouds.6 mph82%30.01 "HgN/A
4:50 am59 °FClear.8 mph82%30.01 "Hg10 mi
4:20 am59 °FClear.6 mph82%30.01 "Hg10 mi
3:50 am57 °FClear.7 mph88%29.98 "Hg10 mi
3:20 am57 °FClear.7 mph88%29.98 "Hg10 mi
2:50 am59 °FClear.9 mph88%29.98 "Hg10 mi
2:20 am61 °FClear.7 mph88%29.98 "Hg10 mi
1:50 am61 °FClear.10 mph88%29.98 "Hg10 mi
1:20 am61 °FClear.8 mph94%29.98 "Hg10 mi
12:50 am63 °FClear.7 mph94%29.98 "Hg10 mi
12:20 am63 °FClear.7 mph94%29.98 "Hg10 mi
11:50 pm
Tue, Jul 16
63 °FPassing clouds.3 mph94%29.95 "HgN/A
11:20 pm63 °FPassing clouds.5 mph100%29.95 "HgN/A
10:50 pm64 °FClear.2 mph94%29.95 "Hg10 mi
10:20 pm64 °FClear.2 mph94%29.95 "Hg10 mi
9:50 pm64 °FThundershowers. Passing clouds.3 mph94%29.92 "HgN/A
9:20 pm70 °FThundershowers. Passing clouds.6 mph73%29.89 "HgN/A
8:50 pm70 °FSunny.5 mph73%29.89 "Hg10 mi
8:20 pm73 °FSunny.2 mph65%29.89 "Hg10 mi
7:50 pm75 °FSunny.6 mph61%29.86 "Hg10 mi
7:20 pm77 °FSunny.10 mph57%29.86 "Hg10 mi
6:50 pm77 °FSunny.14 mph57%29.86 "Hg10 mi
6:20 pm79 °FPassing clouds.16 mph51%29.83 "HgN/A
5:20 pm82 °FPassing clouds.9 mph45%29.83 "HgN/A
4:50 pm81 °FScattered clouds.7 mph54%29.83 "HgN/A
4:20 pm82 °FPassing clouds.12 mph55%29.83 "HgN/A
3:20 pm81 °FPassing clouds.10 mph58%29.86 "HgN/A
2:50 pm79 °FPassing clouds.14 mph65%29.86 "HgN/A
2:20 pm77 °FScattered clouds.13 mph65%29.86 "HgN/A
1:50 pm75 °FSprinkles. Broken clouds.7 mph74%29.86 "HgN/A
1:20 pm77 °FRain showers. Scattered clouds.10 mph65%29.86 "HgN/A
12:50 pm77 °FPassing clouds.13 mph65%29.86 "HgN/A
12:20 pm75 °FPassing clouds.8 mph65%29.86 "HgN/A
Weather by CustomWeather, © 2024

See weather overview